sensor_id;sensor_type;location;lat;lon;timestamp;temperature;humidity
5172;DHT22;2605;49.770;9.868;2022-11-14T00:00:33;3.60;99.90
5172;DHT22;2605;49.770;9.868;2022-11-14T00:03:00;3.60;99.90
5172;DHT22;2605;49.770;9.868;2022-11-14T00:05:25;3.60;99.90
5172;DHT22;2605;49.770;9.868;2022-11-14T00:07:51;3.60;99.90
5172;DHT22;2605;49.770;9.868;2022-11-14T00:10:17;3.60;99.90
5172;DHT22;2605;49.770;9.868;2022-11-14T00:12:42;3.60;99.90
5172;DHT22;2605;49.770;9.868;2022-11-14T00:15:09;3.60;99.90
5172;DHT22;2605;49.770;9.868;2022-11-14T00:17:35;3.60;99.90
5172;DHT22;2605;49.770;9.868;2022-11-14T00:20:00;3.50;99.90
5172;DHT22;2605;49.770;9.868;2022-11-14T00:22:26;3.50;99.90
5172;DHT22;2605;49.770;9.868;2022-11-14T00:24:51;3.60;99.90
5172;DHT22;2605;49.770;9.868;2022-11-14T00:27:17;3.50;99.90
5172;DHT22;2605;49.770;9.868;2022-11-14T00:29:43;3.50;99.90
5172;DHT22;2605;49.770;9.868;2022-11-14T00:32:08;3.50;99.90
5172;DHT22;2605;49.770;9.868;2022-11-14T00:34:36;3.40;99.90
5172;DHT22;2605;49.770;9.868;2022-11-14T00:37:02;3.40;99.90
5172;DHT22;2605;49.770;9.868;2022-11-14T00:39:28;3.40;99.90
5172;DHT22;2605;49.770;9.868;2022-11-14T00:41:53;3.40;99.90
5172;DHT22;2605;49.770;9.868;2022-11-14T00:44:19;3.40;99.90
5172;DHT22;2605;49.770;9.868;2022-11-14T00:46:44;3.40;99.90
5172;DHT22;2605;49.770;9.868;2022-11-14T00:49:10;3.40;99.90
5172;DHT22;2605;49.770;9.868;2022-11-14T00:51:36;3.40;99.90
5172;DHT22;2605;49.770;9.868;2022-11-14T00:54:01;3.40;99.90
5172;DHT22;2605;49.770;9.868;2022-11-14T00:56:30;3.40;99.90
5172;DHT22;2605;49.770;9.868;2022-11-14T00:58:56;3.40;99.90
5172;DHT22;2605;49.770;9.868;2022-11-14T01:01:21;3.40;99.90
5172;DHT22;2605;49.770;9.868;2022-11-14T01:03:48;3.50;99.90
5172;DHT22;2605;49.770;9.868;2022-11-14T01:06:15;3.50;99.90
5172;DHT22;2605;49.770;9.868;2022-11-14T01:08:42;3.50;99.90
5172;DHT22;2605;49.770;9.868;2022-11-14T01:11:18;3.40;99.90
5172;DHT22;2605;49.770;9.868;2022-11-14T01:13:44;3.40;99.90
5172;DHT22;2605;49.770;9.868;2022-11-14T01:16:10;3.40;99.90
5172;DHT22;2605;49.770;9.868;2022-11-14T01:18:37;3.40;99.90
5172;DHT22;2605;49.770;9.868;2022-11-14T01:21:05;3.40;99.90
5172;DHT22;2605;49.770;9.868;2022-11-14T01:23:31;3.30;99.90
5172;DHT22;2605;49.770;9.868;2022-11-14T01:26:02;3.30;99.90
5172;DHT22;2605;49.770;9.868;2022-11-14T01:28:28;3.30;99.90
5172;DHT22;2605;49.770;9.868;2022-11-14T01:30:53;3.30;99.90
5172;DHT22;2605;49.770;9.868;2022-11-14T01:33:19;3.20;99.90
5172;DHT22;2605;49.770;9.868;2022-11-14T01:35:44;3.20;99.90
5172;DHT22;2605;49.770;9.868;2022-11-14T01:38:12;3.30;99.90
5172;DHT22;2605;49.770;9.868;2022-11-14T01:40:43;3.20;99.90
5172;DHT22;2605;49.770;9.868;2022-11-14T01:45:56;3.10;99.90
5172;DHT22;2605;49.770;9.868;2022-11-14T01:48:41;3.10;99.90
5172;DHT22;2605;49.770;9.868;2022-11-14T01:53:36;3.10;99.90
5172;DHT22;2605;49.770;9.868;2022-11-14T01:56:04;3.10;99.90
5172;DHT22;2605;49.770;9.868;2022-11-14T01:58:33;3.10;99.90
5172;DHT22;2605;49.770;9.868;2022-11-14T02:00:59;3.20;99.90
5172;DHT22;2605;49.770;9.868;2022-11-14T02:03:25;3.10;99.90
5172;DHT22;2605;49.770;9.868;2022-11-14T02:05:51;3.10;99.90
5172;DHT22;2605;49.770;9.868;2022-11-14T02:08:17;3.10;99.90
5172;DHT22;2605;49.770;9.868;2022-11-14T02:10:43;3.10;99.90
5172;DHT22;2605;49.770;9.868;2022-11-14T02:13:09;3.00;99.90
5172;DHT22;2605;49.770;9.868;2022-11-14T02:15:35;3.00;99.90
5172;DHT22;2605;49.770;9.868;2022-11-14T02:18:01;3.00;99.90
5172;DHT22;2605;49.770;9.868;2022-11-14T02:20:28;2.90;99.90
5172;DHT22;2605;49.770;9.868;2022-11-14T02:22:57;2.90;99.90
5172;DHT22;2605;49.770;9.868;2022-11-14T02:25:23;2.90;99.90
5172;DHT22;2605;49.770;9.868;2022-11-14T02:27:50;2.90;99.90
5172;DHT22;2605;49.770;9.868;2022-11-14T02:30:19;2.80;99.90
5172;DHT22;2605;49.770;9.868;2022-11-14T02:32:45;2.90;99.90
5172;DHT22;2605;49.770;9.868;2022-11-14T02:35:11;2.80;99.90
5172;DHT22;2605;49.770;9.868;2022-11-14T02:37:37;2.80;99.90
5172;DHT22;2605;49.770;9.868;2022-11-14T02:40:04;2.80;99.90
5172;DHT22;2605;49.770;9.868;2022-11-14T02:42:29;2.90;99.90
5172;DHT22;2605;49.770;9.868;2022-11-14T02:44:55;2.80;99.90
5172;DHT22;2605;49.770;9.868;2022-11-14T02:47:21;2.80;99.90
5172;DHT22;2605;49.770;9.868;2022-11-14T02:49:49;2.80;99.90
5172;DHT22;2605;49.770;9.868;2022-11-14T02:52:15;2.70;99.90
5172;DHT22;2605;49.770;9.868;2022-11-14T02:54:40;2.70;99.90
5172;DHT22;2605;49.770;9.868;2022-11-14T02:57:06;2.70;99.90
5172;DHT22;2605;49.770;9.868;2022-11-14T02:59:31;2.70;99.90
5172;DHT22;2605;49.770;9.868;2022-11-14T03:01:57;2.80;99.90
5172;DHT22;2605;49.770;9.868;2022-11-14T03:04:22;2.80;99.90
5172;DHT22;2605;49.770;9.868;2022-11-14T03:06:48;2.80;99.90
5172;DHT22;2605;49.770;9.868;2022-11-14T03:09:13;2.80;99.90
5172;DHT22;2605;49.770;9.868;2022-11-14T03:11:42;2.80;99.90
5172;DHT22;2605;49.770;9.868;2022-11-14T03:14:07;2.70;99.90
5172;DHT22;2605;49.770;9.868;2022-11-14T03:16:33;2.70;99.90
5172;DHT22;2605;49.770;9.868;2022-11-14T03:18:59;2.70;99.90
5172;DHT22;2605;49.770;9.868;2022-11-14T03:21:25;2.70;99.90
5172;DHT22;2605;49.770;9.868;2022-11-14T03:23:50;2.70;99.90
5172;DHT22;2605;49.770;9.868;2022-11-14T03:26:16;2.60;99.90
5172;DHT22;2605;49.770;9.868;2022-11-14T03:28:42;2.60;99.90
5172;DHT22;2605;49.770;9.868;2022-11-14T03:31:10;2.50;99.90
5172;DHT22;2605;49.770;9.868;2022-11-14T03:33:36;2.40;99.90
5172;DHT22;2605;49.770;9.868;2022-11-14T03:36:02;2.40;99.90
5172;DHT22;2605;49.770;9.868;2022-11-14T03:38:28;2.40;99.90
5172;DHT22;2605;49.770;9.868;2022-11-14T03:40:53;2.30;99.90
5172;DHT22;2605;49.770;9.868;2022-11-14T03:43:20;2.30;99.90
5172;DHT22;2605;49.770;9.868;2022-11-14T03:45:46;2.30;99.90
5172;DHT22;2605;49.770;9.868;2022-11-14T03:48:12;2.20;99.90
5172;DHT22;2605;49.770;9.868;2022-11-14T03:50:38;2.20;99.90
5172;DHT22;2605;49.770;9.868;2022-11-14T03:53:04;2.20;99.90
5172;DHT22;2605;49.770;9.868;2022-11-14T03:55:29;2.10;99.90
5172;DHT22;2605;49.770;9.868;2022-11-14T03:57:55;2.00;99.90
5172;DHT22;2605;49.770;9.868;2022-11-14T04:00:20;1.90;99.90
5172;DHT22;2605;49.770;9.868;2022-11-14T04:02:46;1.90;99.90
5172;DHT22;2605;49.770;9.868;2022-11-14T04:05:12;2.10;99.90
5172;DHT22;2605;49.770;9.868;2022-11-14T04:07:37;2.20;99.90
5172;DHT22;2605;49.770;9.868;2022-11-14T04:10:04;2.30;99.90
5172;DHT22;2605;49.770;9.868;2022-11-14T04:12:29;2.50;99.90
5172;DHT22;2605;49.770;9.868;2022-11-14T04:14:55;2.60;99.90
5172;DHT22;2605;49.770;9.868;2022-11-14T04:17:20;2.70;99.90
5172;DHT22;2605;49.770;9.868;2022-11-14T04:19:46;2.80;99.90
5172;DHT22;2605;49.770;9.868;2022-11-14T04:22:11;2.90;99.90
5172;DHT22;2605;49.770;9.868;2022-11-14T04:24:37;3.00;99.90
5172;DHT22;2605;49.770;9.868;2022-11-14T04:27:02;3.10;99.90
5172;DHT22;2605;49.770;9.868;2022-11-14T04:29:28;3.10;99.90
5172;DHT22;2605;49.770;9.868;2022-11-14T04:31:53;3.20;99.90
5172;DHT22;2605;49.770;9.868;2022-11-14T04:34:19;3.30;99.90
5172;DHT22;2605;49.770;9.868;2022-11-14T04:36:44;3.30;99.90
5172;DHT22;2605;49.770;9.868;2022-11-14T04:39:10;3.40;99.90
5172;DHT22;2605;49.770;9.868;2022-11-14T04:41:35;3.50;99.90
5172;DHT22;2605;49.770;9.868;2022-11-14T04:44:01;3.50;99.90
5172;DHT22;2605;49.770;9.868;2022-11-14T04:46:26;3.60;99.90
5172;DHT22;2605;49.770;9.868;2022-11-14T04:48:52;3.60;99.90
5172;DHT22;2605;49.770;9.868;2022-11-14T04:51:17;3.70;99.90
5172;DHT22;2605;49.770;9.868;2022-11-14T04:53:43;3.70;99.90
5172;DHT22;2605;49.770;9.868;2022-11-14T04:56:09;3.80;99.90
5172;DHT22;2605;49.770;9.868;2022-11-14T04:58:34;3.90;99.90
5172;DHT22;2605;49.770;9.868;2022-11-14T05:01:06;3.90;99.90
5172;DHT22;2605;49.770;9.868;2022-11-14T05:03:32;3.90;99.90
5172;DHT22;2605;49.770;9.868;2022-11-14T05:06:01;4.00;99.90
5172;DHT22;2605;49.770;9.868;2022-11-14T05:08:27;4.00;99.90
5172;DHT22;2605;49.770;9.868;2022-11-14T05:10:53;4.10;99.90
5172;DHT22;2605;49.770;9.868;2022-11-14T05:13:19;4.10;99.90
5172;DHT22;2605;49.770;9.868;2022-11-14T05:15:44;4.10;99.90
5172;DHT22;2605;49.770;9.868;2022-11-14T05:18:13;4.20;99.90
5172;DHT22;2605;49.770;9.868;2022-11-14T05:20:38;4.20;99.90
5172;DHT22;2605;49.770;9.868;2022-11-14T05:23:04;4.20;99.90
5172;DHT22;2605;49.770;9.868;2022-11-14T05:25:29;4.30;99.90
5172;DHT22;2605;49.770;9.868;2022-11-14T05:27:55;4.30;99.90
5172;DHT22;2605;49.770;9.868;2022-11-14T05:30:20;4.30;99.90
5172;DHT22;2605;49.770;9.868;2022-11-14T05:32:46;4.30;99.90
5172;DHT22;2605;49.770;9.868;2022-11-14T05:35:12;4.30;99.90
5172;DHT22;2605;49.770;9.868;2022-11-14T05:37:38;4.40;99.90
5172;DHT22;2605;49.770;9.868;2022-11-14T05:40:04;4.40;99.90
5172;DHT22;2605;49.770;9.868;2022-11-14T05:42:30;4.40;99.90
5172;DHT22;2605;49.770;9.868;2022-11-14T05:44:56;4.40;99.90
5172;DHT22;2605;49.770;9.868;2022-11-14T05:47:21;4.50;99.90
5172;DHT22;2605;49.770;9.868;2022-11-14T05:49:47;4.50;99.90
5172;DHT22;2605;49.770;9.868;2022-11-14T05:52:13;4.50;99.90
5172;DHT22;2605;49.770;9.868;2022-11-14T05:54:38;4.50;99.90
5172;DHT22;2605;49.770;9.868;2022-11-14T05:57:04;4.60;99.90
5172;DHT22;2605;49.770;9.868;2022-11-14T05:59:29;4.60;99.90
5172;DHT22;2605;49.770;9.868;2022-11-14T06:01:55;4.70;99.90
5172;DHT22;2605;49.770;9.868;2022-11-14T06:04:21;4.70;99.90
5172;DHT22;2605;49.770;9.868;2022-11-14T06:06:47;4.70;99.90
5172;DHT22;2605;49.770;9.868;2022-11-14T06:09:12;4.70;99.90
5172;DHT22;2605;49.770;9.868;2022-11-14T06:11:38;4.70;99.90
5172;DHT22;2605;49.770;9.868;2022-11-14T06:14:03;4.80;99.90
5172;DHT22;2605;49.770;9.868;2022-11-14T06:16:29;4.80;99.90
5172;DHT22;2605;49.770;9.868;2022-11-14T06:18:55;4.90;99.90
5172;DHT22;2605;49.770;9.868;2022-11-14T06:21:22;4.90;99.90
5172;DHT22;2605;49.770;9.868;2022-11-14T06:23:48;5.00;99.90
5172;DHT22;2605;49.770;9.868;2022-11-14T06:26:23;5.00;99.90
5172;DHT22;2605;49.770;9.868;2022-11-14T06:28:50;5.00;99.90
5172;DHT22;2605;49.770;9.868;2022-11-14T06:31:17;5.10;99.90
5172;DHT22;2605;49.770;9.868;2022-11-14T06:33:43;5.10;99.90
5172;DHT22;2605;49.770;9.868;2022-11-14T06:36:09;5.10;99.90
5172;DHT22;2605;49.770;9.868;2022-11-14T06:38:36;5.10;99.90
5172;DHT22;2605;49.770;9.868;2022-11-14T06:41:03;5.10;99.90
5172;DHT22;2605;49.770;9.868;2022-11-14T06:43:31;5.10;99.90
5172;DHT22;2605;49.770;9.868;2022-11-14T06:45:57;5.10;99.90
5172;DHT22;2605;49.770;9.868;2022-11-14T06:48:23;5.10;99.90
5172;DHT22;2605;49.770;9.868;2022-11-14T06:50:52;5.20;99.90
5172;DHT22;2605;49.770;9.868;2022-11-14T06:53:18;5.20;99.90
5172;DHT22;2605;49.770;9.868;2022-11-14T06:55:58;5.20;99.90
5172;DHT22;2605;49.770;9.868;2022-11-14T06:58:26;5.20;99.90
5172;DHT22;2605;49.770;9.868;2022-11-14T07:00:51;5.30;99.90
5172;DHT22;2605;49.770;9.868;2022-11-14T07:03:17;5.30;99.90
5172;DHT22;2605;49.770;9.868;2022-11-14T07:05:42;5.30;99.90
5172;DHT22;2605;49.770;9.868;2022-11-14T07:08:08;5.40;99.90
5172;DHT22;2605;49.770;9.868;2022-11-14T07:10:33;5.30;99.90
5172;DHT22;2605;49.770;9.868;2022-11-14T07:12:59;5.40;99.90
5172;DHT22;2605;49.770;9.868;2022-11-14T07:15:24;5.40;99.90
5172;DHT22;2605;49.770;9.868;2022-11-14T07:17:50;5.40;99.90
5172;DHT22;2605;49.770;9.868;2022-11-14T07:20:16;5.40;99.90
5172;DHT22;2605;49.770;9.868;2022-11-14T07:22:44;5.40;99.90
5172;DHT22;2605;49.770;9.868;2022-11-14T07:25:10;5.50;99.90
5172;DHT22;2605;49.770;9.868;2022-11-14T07:27:36;5.50;99.90
5172;DHT22;2605;49.770;9.868;2022-11-14T07:30:02;5.50;99.90
5172;DHT22;2605;49.770;9.868;2022-11-14T07:32:27;5.50;99.90
5172;DHT22;2605;49.770;9.868;2022-11-14T07:34:53;5.50;99.90
5172;DHT22;2605;49.770;9.868;2022-11-14T07:37:18;5.60;99.90
5172;DHT22;2605;49.770;9.868;2022-11-14T07:39:44;5.60;99.90
5172;DHT22;2605;49.770;9.868;2022-11-14T07:42:10;5.50;99.90
5172;DHT22;2605;49.770;9.868;2022-11-14T07:44:36;5.40;99.90
5172;DHT22;2605;49.770;9.868;2022-11-14T07:47:01;5.40;99.90
5172;DHT22;2605;49.770;9.868;2022-11-14T07:49:27;5.40;99.90
5172;DHT22;2605;49.770;9.868;2022-11-14T07:51:52;5.50;99.90
5172;DHT22;2605;49.770;9.868;2022-11-14T07:54:18;5.50;99.90
5172;DHT22;2605;49.770;9.868;2022-11-14T07:56:43;5.60;99.90
5172;DHT22;2605;49.770;9.868;2022-11-14T07:59:09;5.60;99.90
5172;DHT22;2605;49.770;9.868;2022-11-14T08:01:34;5.60;99.90
5172;DHT22;2605;49.770;9.868;2022-11-14T08:03:59;5.60;99.90
5172;DHT22;2605;49.770;9.868;2022-11-14T08:06:25;5.50;99.90
5172;DHT22;2605;49.770;9.868;2022-11-14T08:08:51;5.60;99.90
5172;DHT22;2605;49.770;9.868;2022-11-14T08:11:16;5.60;99.90
5172;DHT22;2605;49.770;9.868;2022-11-14T08:14:02;5.70;99.90
5172;DHT22;2605;49.770;9.868;2022-11-14T08:16:27;5.80;99.90
5172;DHT22;2605;49.770;9.868;2022-11-14T08:18:53;5.90;99.90
5172;DHT22;2605;49.770;9.868;2022-11-14T08:21:18;6.00;99.90
5172;DHT22;2605;49.770;9.868;2022-11-14T08:23:44;6.10;99.90
5172;DHT22;2605;49.770;9.868;2022-11-14T08:26:10;6.20;99.90
5172;DHT22;2605;49.770;9.868;2022-11-14T08:28:35;6.20;99.90
5172;DHT22;2605;49.770;9.868;2022-11-14T08:31:02;6.30;99.90
5172;DHT22;2605;49.770;9.868;2022-11-14T08:33:29;6.30;99.90
5172;DHT22;2605;49.770;9.868;2022-11-14T08:35:54;6.40;99.90
5172;DHT22;2605;49.770;9.868;2022-11-14T08:38:20;6.60;99.90
5172;DHT22;2605;49.770;9.868;2022-11-14T08:40:46;6.60;99.90
5172;DHT22;2605;49.770;9.868;2022-11-14T08:43:12;6.60;99.90
5172;DHT22;2605;49.770;9.868;2022-11-14T08:45:38;6.70;99.90
5172;DHT22;2605;49.770;9.868;2022-11-14T08:48:03;6.80;99.90
5172;DHT22;2605;49.770;9.868;2022-11-14T08:50:30;6.90;99.90
5172;DHT22;2605;49.770;9.868;2022-11-14T08:52:55;7.00;99.90
5172;DHT22;2605;49.770;9.868;2022-11-14T08:55:21;7.00;99.90
5172;DHT22;2605;49.770;9.868;2022-11-14T08:57:47;7.00;99.90
5172;DHT22;2605;49.770;9.868;2022-11-14T09:00:13;7.00;99.90
5172;DHT22;2605;49.770;9.868;2022-11-14T09:02:38;6.70;99.90
5172;DHT22;2605;49.770;9.868;2022-11-14T09:05:05;6.70;99.90
5172;DHT22;2605;49.770;9.868;2022-11-14T09:07:31;6.80;99.90
5172;DHT22;2605;49.770;9.868;2022-11-14T09:09:57;6.90;99.90
5172;DHT22;2605;49.770;9.868;2022-11-14T09:12:22;7.00;99.90
5172;DHT22;2605;49.770;9.868;2022-11-14T09:14:48;7.00;99.90
5172;DHT22;2605;49.770;9.868;2022-11-14T09:17:13;7.10;99.90
5172;DHT22;2605;49.770;9.868;2022-11-14T09:19:39;7.20;99.90
5172;DHT22;2605;49.770;9.868;2022-11-14T09:22:04;7.40;99.90
5172;DHT22;2605;49.770;9.868;2022-11-14T09:24:30;7.60;99.90
5172;DHT22;2605;49.770;9.868;2022-11-14T09:26:55;7.70;99.90
5172;DHT22;2605;49.770;9.868;2022-11-14T09:29:21;7.90;99.90
5172;DHT22;2605;49.770;9.868;2022-11-14T09:31:46;8.10;99.90
5172;DHT22;2605;49.770;9.868;2022-11-14T09:34:12;8.10;99.90
5172;DHT22;2605;49.770;9.868;2022-11-14T09:36:38;8.20;99.90
5172;DHT22;2605;49.770;9.868;2022-11-14T09:39:03;8.30;99.90
5172;DHT22;2605;49.770;9.868;2022-11-14T09:44:45;8.60;99.90
5172;DHT22;2605;49.770;9.868;2022-11-14T09:47:17;8.70;99.90
5172;DHT22;2605;49.770;9.868;2022-11-14T09:49:46;8.70;99.90
5172;DHT22;2605;49.770;9.868;2022-11-14T09:55:09;8.70;99.90
5172;DHT22;2605;49.770;9.868;2022-11-14T09:57:36;8.80;99.90
5172;DHT22;2605;49.770;9.868;2022-11-14T10:00:10;8.70;99.90
5172;DHT22;2605;49.770;9.868;2022-11-14T10:03:11;8.70;99.90
5172;DHT22;2605;49.770;9.868;2022-11-14T10:06:07;8.70;99.90
5172;DHT22;2605;49.770;9.868;2022-11-14T10:11:23;9.00;99.90
5172;DHT22;2605;49.770;9.868;2022-11-14T10:17:41;9.20;99.90
5172;DHT22;2605;49.770;9.868;2022-11-14T10:23:03;9.60;99.90
5172;DHT22;2605;49.770;9.868;2022-11-14T10:28:28;10.20;99.90
5172;DHT22;2605;49.770;9.868;2022-11-14T10:31:15;10.10;99.90
5172;DHT22;2605;49.770;9.868;2022-11-14T10:34:13;10.10;99.90
5172;DHT22;2605;49.770;9.868;2022-11-14T10:36:54;10.10;99.90
5172;DHT22;2605;49.770;9.868;2022-11-14T10:39:35;10.00;99.90
5172;DHT22;2605;49.770;9.868;2022-11-14T10:42:12;10.20;99.90
5172;DHT22;2605;49.770;9.868;2022-11-14T10:44:50;10.20;99.90
5172;DHT22;2605;49.770;9.868;2022-11-14T10:47:20;10.10;99.90
5172;DHT22;2605;49.770;9.868;2022-11-14T10:49:49;10.00;99.90
5172;DHT22;2605;49.770;9.868;2022-11-14T10:52:19;9.90;99.90
5172;DHT22;2605;49.770;9.868;2022-11-14T10:54:56;9.80;99.90
5172;DHT22;2605;49.770;9.868;2022-11-14T10:57:29;9.70;99.90
5172;DHT22;2605;49.770;9.868;2022-11-14T10:59:55;9.70;99.90
5172;DHT22;2605;49.770;9.868;2022-11-14T11:02:22;9.60;99.90
5172;DHT22;2605;49.770;9.868;2022-11-14T11:04:47;9.50;99.90
5172;DHT22;2605;49.770;9.868;2022-11-14T11:07:22;9.40;99.90
5172;DHT22;2605;49.770;9.868;2022-11-14T11:10:19;9.50;99.90
5172;DHT22;2605;49.770;9.868;2022-11-14T11:13:03;9.30;99.90
5172;DHT22;2605;49.770;9.868;2022-11-14T11:15:30;9.40;99.90
5172;DHT22;2605;49.770;9.868;2022-11-14T11:17:58;9.50;99.90
5172;DHT22;2605;49.770;9.868;2022-11-14T11:25:35;9.70;99.90
5172;DHT22;2605;49.770;9.868;2022-11-14T11:30:33;9.90;99.90
5172;DHT22;2605;49.770;9.868;2022-11-14T11:33:16;10.00;99.90
5172;DHT22;2605;49.770;9.868;2022-11-14T11:35:50;10.00;99.90
5172;DHT22;2605;49.770;9.868;2022-11-14T11:38:18;10.10;99.90
5172;DHT22;2605;49.770;9.868;2022-11-14T11:40:46;10.20;99.90
5172;DHT22;2605;49.770;9.868;2022-11-14T11:43:20;10.30;99.90
5172;DHT22;2605;49.770;9.868;2022-11-14T11:45:49;10.20;99.90
5172;DHT22;2605;49.770;9.868;2022-11-14T11:48:19;10.00;99.90
5172;DHT22;2605;49.770;9.868;2022-11-14T11:50:45;10.00;99.90
5172;DHT22;2605;49.770;9.868;2022-11-14T11:53:28;10.00;99.90
5172;DHT22;2605;49.770;9.868;2022-11-14T11:56:00;9.90;99.90
5172;DHT22;2605;49.770;9.868;2022-11-14T11:58:34;10.00;99.90
5172;DHT22;2605;49.770;9.868;2022-11-14T12:01:10;10.10;99.90
5172;DHT22;2605;49.770;9.868;2022-11-14T12:03:36;10.30;99.90
5172;DHT22;2605;49.770;9.868;2022-11-14T12:06:19;10.40;99.90
5172;DHT22;2605;49.770;9.868;2022-11-14T12:09:17;10.40;99.90
5172;DHT22;2605;49.770;9.868;2022-11-14T12:11:48;10.50;99.90
5172;DHT22;2605;49.770;9.868;2022-11-14T12:20:19;10.20;99.90
5172;DHT22;2605;49.770;9.868;2022-11-14T12:30:58;10.10;99.90
5172;DHT22;2605;49.770;9.868;2022-11-14T12:33:58;10.20;99.90
5172;DHT22;2605;49.770;9.868;2022-11-14T12:36:33;10.20;99.90
5172;DHT22;2605;49.770;9.868;2022-11-14T12:39:00;10.10;99.90
5172;DHT22;2605;49.770;9.868;2022-11-14T12:41:29;10.00;99.90
5172;DHT22;2605;49.770;9.868;2022-11-14T12:52:42;9.90;99.90
5172;DHT22;2605;49.770;9.868;2022-11-14T12:58:08;9.90;99.90
5172;DHT22;2605;49.770;9.868;2022-11-14T13:00:39;10.00;99.90
5172;DHT22;2605;49.770;9.868;2022-11-14T13:06:22;10.20;99.90
5172;DHT22;2605;49.770;9.868;2022-11-14T13:09:39;10.30;99.90
5172;DHT22;2605;49.770;9.868;2022-11-14T13:11:48;10.50;99.90
5172;DHT22;2605;49.770;9.868;2022-11-14T13:14:48;10.60;99.90
5172;DHT22;2605;49.770;9.868;2022-11-14T13:17:33;10.80;99.90
5172;DHT22;2605;49.770;9.868;2022-11-14T13:23:04;11.10;99.90
5172;DHT22;2605;49.770;9.868;2022-11-14T13:25:30;11.10;99.90
5172;DHT22;2605;49.770;9.868;2022-11-14T13:33:53;11.20;99.90
5172;DHT22;2605;49.770;9.868;2022-11-14T13:40:13;11.10;99.90
5172;DHT22;2605;49.770;9.868;2022-11-14T13:45:35;11.00;99.90
5172;DHT22;2605;49.770;9.868;2022-11-14T13:51:10;11.00;99.90
5172;DHT22;2605;49.770;9.868;2022-11-14T13:53:38;11.00;99.90
5172;DHT22;2605;49.770;9.868;2022-11-14T13:56:30;11.00;99.90
5172;DHT22;2605;49.770;9.868;2022-11-14T14:01:42;11.20;99.90
5172;DHT22;2605;49.770;9.868;2022-11-14T14:12:40;10.90;99.90
5172;DHT22;2605;49.770;9.868;2022-11-14T14:18:07;10.80;99.90
5172;DHT22;2605;49.770;9.868;2022-11-14T14:20:46;10.70;99.90
5172;DHT22;2605;49.770;9.868;2022-11-14T14:29:05;10.70;99.90
5172;DHT22;2605;49.770;9.868;2022-11-14T14:31:40;11.20;99.90
5172;DHT22;2605;49.770;9.868;2022-11-14T14:34:29;11.60;99.90
5172;DHT22;2605;49.770;9.868;2022-11-14T14:36:56;13.10;99.90
5172;DHT22;2605;49.770;9.868;2022-11-14T14:39:24;13.20;99.90
5172;DHT22;2605;49.770;9.868;2022-11-14T14:41:51;13.00;99.90
5172;DHT22;2605;49.770;9.868;2022-11-14T14:46:45;13.00;99.90
5172;DHT22;2605;49.770;9.868;2022-11-14T14:49:21;14.20;99.90
5172;DHT22;2605;49.770;9.868;2022-11-14T14:51:47;15.20;99.90
5172;DHT22;2605;49.770;9.868;2022-11-14T14:54:24;15.90;99.90
5172;DHT22;2605;49.770;9.868;2022-11-14T14:56:55;15.90;99.90
5172;DHT22;2605;49.770;9.868;2022-11-14T14:59:23;16.20;99.90
5172;DHT22;2605;49.770;9.868;2022-11-14T15:01:49;16.40;99.90
5172;DHT22;2605;49.770;9.868;2022-11-14T15:04:16;15.70;99.90
5172;DHT22;2605;49.770;9.868;2022-11-14T15:06:45;15.20;99.90
5172;DHT22;2605;49.770;9.868;2022-11-14T15:09:25;14.40;99.90
5172;DHT22;2605;49.770;9.868;2022-11-14T15:11:56;13.60;99.90
5172;DHT22;2605;49.770;9.868;2022-11-14T15:14:32;13.10;99.90
5172;DHT22;2605;49.770;9.868;2022-11-14T15:17:02;12.60;99.90
5172;DHT22;2605;49.770;9.868;2022-11-14T15:19:36;12.30;99.90
5172;DHT22;2605;49.770;9.868;2022-11-14T15:24:41;11.60;99.90
5172;DHT22;2605;49.770;9.868;2022-11-14T15:27:24;11.30;99.90
5172;DHT22;2605;49.770;9.868;2022-11-14T15:29:51;10.90;99.90
5172;DHT22;2605;49.770;9.868;2022-11-14T15:32:22;10.70;99.90
5172;DHT22;2605;49.770;9.868;2022-11-14T15:38:18;10.30;99.90
5172;DHT22;2605;49.770;9.868;2022-11-14T15:46:27;9.80;99.90
5172;DHT22;2605;49.770;9.868;2022-11-14T15:48:53;9.80;99.90
5172;DHT22;2605;49.770;9.868;2022-11-14T15:51:37;9.80;99.90
5172;DHT22;2605;49.770;9.868;2022-11-14T15:54:03;9.80;99.90
5172;DHT22;2605;49.770;9.868;2022-11-14T15:56:28;9.80;99.90
5172;DHT22;2605;49.770;9.868;2022-11-14T15:58:55;9.80;99.90
5172;DHT22;2605;49.770;9.868;2022-11-14T16:01:22;9.80;99.90
5172;DHT22;2605;49.770;9.868;2022-11-14T16:03:50;9.90;99.90
5172;DHT22;2605;49.770;9.868;2022-11-14T16:06:16;9.90;99.90
5172;DHT22;2605;49.770;9.868;2022-11-14T16:08:42;9.90;99.90
5172;DHT22;2605;49.770;9.868;2022-11-14T16:11:07;9.90;99.90
5172;DHT22;2605;49.770;9.868;2022-11-14T16:13:33;10.00;99.90
5172;DHT22;2605;49.770;9.868;2022-11-14T16:15:58;9.90;99.90
5172;DHT22;2605;49.770;9.868;2022-11-14T16:18:24;9.90;99.90
5172;DHT22;2605;49.770;9.868;2022-11-14T16:20:49;9.90;99.90
5172;DHT22;2605;49.770;9.868;2022-11-14T16:23:15;9.90;99.90
5172;DHT22;2605;49.770;9.868;2022-11-14T16:25:41;9.90;99.90
5172;DHT22;2605;49.770;9.868;2022-11-14T16:28:06;9.90;99.90
5172;DHT22;2605;49.770;9.868;2022-11-14T16:30:35;10.00;99.90
5172;DHT22;2605;49.770;9.868;2022-11-14T16:33:01;10.00;99.90
5172;DHT22;2605;49.770;9.868;2022-11-14T16:35:26;10.10;99.90
5172;DHT22;2605;49.770;9.868;2022-11-14T16:37:55;10.10;99.90
5172;DHT22;2605;49.770;9.868;2022-11-14T16:40:25;10.20;99.90
5172;DHT22;2605;49.770;9.868;2022-11-14T16:42:58;10.30;99.90
5172;DHT22;2605;49.770;9.868;2022-11-14T16:45:24;10.30;99.90
5172;DHT22;2605;49.770;9.868;2022-11-14T16:47:51;10.40;99.90
5172;DHT22;2605;49.770;9.868;2022-11-14T16:50:20;10.40;99.90
5172;DHT22;2605;49.770;9.868;2022-11-14T16:52:47;10.40;99.90
5172;DHT22;2605;49.770;9.868;2022-11-14T16:55:16;10.50;99.90
5172;DHT22;2605;49.770;9.868;2022-11-14T16:57:42;10.60;99.90
5172;DHT22;2605;49.770;9.868;2022-11-14T17:00:09;10.70;99.90
5172;DHT22;2605;49.770;9.868;2022-11-14T17:02:36;10.70;99.90
5172;DHT22;2605;49.770;9.868;2022-11-14T17:05:02;10.70;99.90
5172;DHT22;2605;49.770;9.868;2022-11-14T17:07:28;10.60;99.90
5172;DHT22;2605;49.770;9.868;2022-11-14T17:09:56;10.70;99.90
5172;DHT22;2605;49.770;9.868;2022-11-14T17:12:22;10.60;99.90
5172;DHT22;2605;49.770;9.868;2022-11-14T17:14:47;10.60;99.90
5172;DHT22;2605;49.770;9.868;2022-11-14T17:17:13;10.60;99.90
5172;DHT22;2605;49.770;9.868;2022-11-14T17:19:38;10.60;99.90
5172;DHT22;2605;49.770;9.868;2022-11-14T17:22:13;10.70;99.90
5172;DHT22;2605;49.770;9.868;2022-11-14T17:24:39;10.70;99.90
5172;DHT22;2605;49.770;9.868;2022-11-14T17:27:05;10.70;99.90
5172;DHT22;2605;49.770;9.868;2022-11-14T17:29:31;10.80;99.90
5172;DHT22;2605;49.770;9.868;2022-11-14T17:31:56;10.80;99.90
5172;DHT22;2605;49.770;9.868;2022-11-14T17:34:22;10.80;99.90
5172;DHT22;2605;49.770;9.868;2022-11-14T17:36:47;10.90;99.90
5172;DHT22;2605;49.770;9.868;2022-11-14T17:39:13;10.90;99.90
5172;DHT22;2605;49.770;9.868;2022-11-14T17:41:38;11.00;99.90
5172;DHT22;2605;49.770;9.868;2022-11-14T17:44:04;11.00;99.90
5172;DHT22;2605;49.770;9.868;2022-11-14T17:46:29;11.10;99.90
5172;DHT22;2605;49.770;9.868;2022-11-14T17:48:56;11.10;99.90
5172;DHT22;2605;49.770;9.868;2022-11-14T17:51:21;11.10;99.90
5172;DHT22;2605;49.770;9.868;2022-11-14T17:53:53;11.20;99.90
5172;DHT22;2605;49.770;9.868;2022-11-14T17:56:21;11.20;99.90
5172;DHT22;2605;49.770;9.868;2022-11-14T17:58:49;11.30;99.90
5172;DHT22;2605;49.770;9.868;2022-11-14T18:01:16;11.30;99.90
5172;DHT22;2605;49.770;9.868;2022-11-14T18:03:42;11.30;99.90
5172;DHT22;2605;49.770;9.868;2022-11-14T18:06:12;11.40;99.90
5172;DHT22;2605;49.770;9.868;2022-11-14T18:08:38;11.40;99.90
5172;DHT22;2605;49.770;9.868;2022-11-14T18:11:06;11.50;99.90